createdAt,value
2022-08-26T00:04:13.530Z,101484.09
2022-08-26T00:09:15.925Z,101484.16
2022-08-26T00:14:24.177Z,101494.63
2022-08-26T00:19:30.041Z,101554.00
2022-08-26T00:24:32.672Z,101554.00
2022-08-26T00:29:34.784Z,101562.72
2022-08-26T00:34:37.085Z,101574.94
2022-08-26T00:39:41.030Z,101606.28
2022-08-26T00:44:44.954Z,101621.16
2022-08-26T00:49:47.691Z,101626.41
2022-08-26T00:54:59.715Z,101641.19
2022-08-26T01:00:05.648Z,101649.91
2022-08-26T01:05:11.371Z,101658.63
2022-08-26T01:10:18.027Z,101683.91
2022-08-26T01:15:24.174Z,101686.53
2022-08-26T01:20:34.459Z,101694.38
2022-08-26T01:25:40.595Z,101698.72
2022-08-26T01:30:46.739Z,101701.31
2022-08-26T01:35:50.198Z,101707.41
2022-08-26T01:40:53.747Z,101715.25
2022-08-26T01:45:57.018Z,101712.66
2022-08-26T01:51:01.099Z,101728.34
2022-08-26T01:56:05.145Z,101726.59
2022-08-26T02:01:07.702Z,101724.84
2022-08-26T02:06:12.440Z,101721.34
2022-08-26T02:11:14.630Z,101710.91
2022-08-26T02:16:22.398Z,101703.91
2022-08-26T02:21:25.432Z,101695.22
2022-08-26T02:26:27.287Z,101691.72
2022-08-26T02:31:29.487Z,101679.53
2022-08-26T02:36:31.104Z,101678.66
2022-08-26T02:41:32.924Z,101675.16
2022-08-26T02:46:34.812Z,101666.47
2022-08-26T02:51:38.731Z,101661.22
2022-08-26T02:56:41.818Z,101648.16
2022-08-26T03:01:45.220Z,101638.59
2022-08-26T03:06:52.950Z,101637.69
2022-08-26T03:11:55.513Z,101621.16
2022-08-26T03:16:57.206Z,101603.72
2022-08-26T03:22:00.541Z,101603.72
2022-08-26T03:27:02.136Z,101602.00
2022-08-26T03:32:09.791Z,101601.13
2022-08-26T03:37:12.172Z,101598.50
2022-08-26T03:42:14.939Z,101606.34
2022-08-26T03:47:17.442Z,101604.63
2022-08-26T03:52:18.962Z,101601.97
2022-08-26T03:57:20.759Z,101602.84
2022-08-26T04:02:24.974Z,101608.09
2022-08-26T04:07:27.204Z,101606.34
2022-08-26T04:12:29.546Z,101604.63
2022-08-26T04:17:31.298Z,101604.59
2022-08-26T04:22:34.435Z,101606.34
2022-08-26T04:27:36.127Z,101601.09
2022-08-26T04:32:38.629Z,101590.66
2022-08-26T04:37:42.688Z,101592.41
2022-08-26T04:42:44.709Z,101580.19
2022-08-26T04:47:46.865Z,101589.78
2022-08-26T04:52:48.554Z,101598.50
2022-08-26T04:57:50.102Z,101597.63
2022-08-26T05:02:51.832Z,101598.50
2022-08-26T05:07:53.370Z,101593.25
2022-08-26T05:12:54.885Z,101592.38
2022-08-26T05:17:59.189Z,101587.16
2022-08-26T05:23:02.627Z,101577.59
2022-08-26T05:28:04.695Z,101582.81
2022-08-26T05:33:09.250Z,101573.22
2022-08-26T05:38:15.756Z,101573.22
2022-08-26T05:43:21.096Z,101577.56
2022-08-26T05:48:24.384Z,101576.66
2022-08-26T05:53:26.313Z,101581.88
2022-08-26T05:58:28.358Z,101571.34
2022-08-26T06:03:31.658Z,101576.63
2022-08-26T06:08:34.529Z,101590.59
2022-08-26T06:13:37.362Z,101586.28
2022-08-26T06:18:43.761Z,101583.63
2022-08-26T06:24:05.595Z,101578.44
2022-08-26T06:29:07.996Z,101584.50
2022-08-26T06:34:11.007Z,101587.97
2022-08-26T06:39:14.444Z,101584.50
2022-08-26T06:44:16.359Z,101594.06
2022-08-26T06:49:18.367Z,101586.16
2022-08-26T06:54:30.344Z,101586.06
2022-08-26T06:59:31.912Z,101574.66
2022-08-26T07:04:34.004Z,101575.38
2022-08-26T07:09:37.457Z,101575.34
2022-08-26T07:14:39.419Z,101569.16
2022-08-26T07:19:40.933Z,101563.19
2022-08-26T07:24:42.801Z,101573.56
2022-08-26T07:29:45.674Z,101565.81
2022-08-26T07:34:47.268Z,101579.63
2022-08-26T07:39:48.875Z,101583.03
2022-08-26T07:44:50.803Z,101590.06
2022-08-26T07:49:55.145Z,101591.75
2022-08-26T07:54:58.162Z,101585.59
2022-08-26T08:00:00.657Z,101586.28
2022-08-26T08:05:02.320Z,101584.56
2022-08-26T08:10:09.628Z,101583.03
2022-08-26T08:15:13.871Z,101588.44
2022-08-26T08:20:15.423Z,101594.19
2022-08-26T08:25:17.680Z,101589.66
2022-08-26T08:30:22.790Z,101586.41
2022-08-26T08:35:26.438Z,101590.91
2022-08-26T08:40:29.322Z,101590.88
2022-08-26T08:45:39.079Z,101585.56
2022-08-26T08:50:47.873Z,101583.66
2022-08-26T08:56:02.871Z,101577.72
2022-08-26T09:01:09.843Z,101580.13
2022-08-26T09:06:17.386Z,101576.69
2022-08-26T09:11:20.782Z,101586.22
2022-08-26T09:16:48.126Z,101589.03
2022-08-26T09:21:58.183Z,101586.06
2022-08-26T09:26:59.754Z,101596.41
2022-08-26T09:32:24.228Z,101579.06
2022-08-26T09:37:43.644Z,101586.81
2022-08-26T09:50:28.810Z,101565.16
2022-08-26T09:55:30.911Z,101567.59
2022-08-26T10:00:41.386Z,101568.94
2022-08-26T10:05:58.441Z,101578.63
2022-08-26T10:11:05.563Z,101581.03
2022-08-26T10:16:17.663Z,101577.03
2022-08-26T10:21:35.618Z,101573.69
2022-08-26T10:26:58.973Z,101570.31
2022-08-26T10:32:07.047Z,101562.94
2022-08-26T10:37:16.739Z,101564.59
2022-08-26T10:42:32.412Z,101554.84
2022-08-26T10:48:00.022Z,101564.47
2022-08-26T10:53:17.141Z,101560.03
2022-08-26T10:58:46.399Z,101569.59
2022-08-26T11:04:04.591Z,101567.44
2022-08-26T11:10:09.047Z,101575.69
2022-08-26T11:15:19.773Z,101582.00
2022-08-26T11:20:39.124Z,101579.44
2022-08-26T11:25:55.890Z,101582.28
2022-08-26T11:30:58.651Z,101570.09
2022-08-26T11:36:00.581Z,101578.28
2022-08-26T11:41:21.312Z,101574.09
2022-08-26T11:46:24.401Z,101569.97
2022-08-26T11:51:26.216Z,101580.00
2022-08-26T11:56:32.458Z,101571.66
2022-08-26T12:01:37.749Z,101569.19
2022-08-26T12:06:51.333Z,101575.22
2022-08-26T12:12:13.200Z,101587.72
2022-08-26T12:17:19.456Z,101579.03
2022-08-26T12:22:26.090Z,101575.25
2022-08-26T12:27:34.102Z,101572.41
2022-08-26T12:32:57.175Z,101561.19
2022-08-26T12:38:00.025Z,101564.59
2022-08-26T12:43:04.939Z,101571.69
2022-08-26T12:48:24.574Z,101573.81
2022-08-26T12:53:28.900Z,101582.38
2022-08-26T12:58:37.058Z,101582.19
2022-08-26T13:03:48.390Z,101578.50
2022-08-26T13:08:57.179Z,101579.84
2022-08-26T13:14:07.586Z,101568.84
2022-08-26T13:19:17.016Z,101554.75
2022-08-26T13:24:26.052Z,101563.63
2022-08-26T13:29:27.803Z,101564.47
2022-08-26T13:34:30.894Z,101556.03
2022-08-26T13:39:38.142Z,101565.13
2022-08-26T13:44:40.714Z,101571.13
2022-08-26T13:49:43.778Z,101565.94
2022-08-26T13:54:45.626Z,101565.31
2022-08-26T13:59:47.465Z,101577.72
2022-08-26T14:04:49.129Z,101588.19
2022-08-26T14:09:50.747Z,101596.19
2022-08-26T14:21:37.875Z,101597.97
2022-08-26T14:26:39.816Z,101593.59
2022-08-26T14:31:41.882Z,101584.75
2022-08-26T14:36:43.559Z,101583.84
2022-08-26T14:41:54.706Z,101585.84
2022-08-26T14:46:57.857Z,101593.66
2022-08-26T14:51:59.668Z,101584.88
2022-08-26T14:57:06.046Z,101590.16
2022-08-26T15:02:10.606Z,101590.06
2022-08-26T15:07:15.562Z,101598.16
2022-08-26T15:12:17.231Z,101600.78
2022-08-26T15:17:18.929Z,101585.06
2022-08-26T15:22:23.091Z,101585.03
2022-08-26T15:27:24.789Z,101571.81
2022-08-26T15:32:26.383Z,101556.94
2022-08-26T15:37:28.121Z,101546.34
2022-08-26T15:42:29.806Z,101541.16
2022-08-26T15:47:31.531Z,101556.88
2022-08-26T15:52:39.292Z,101552.44
2022-08-26T15:57:44.079Z,101545.56
2022-08-26T16:02:46.540Z,101538.63
2022-08-26T16:07:48.775Z,101546.44
2022-08-26T16:12:50.938Z,101540.47
2022-08-26T16:17:52.642Z,101536.03
2022-08-26T16:22:55.129Z,101541.28
2022-08-26T16:27:57.880Z,101546.66
2022-08-26T16:33:00.659Z,101550.19
2022-08-26T16:38:02.532Z,101560.78
2022-08-26T16:43:04.670Z,101569.53
2022-08-26T16:48:07.304Z,101575.72
2022-08-26T16:58:17.133Z,101594.97
2022-08-26T17:03:18.742Z,101588.91
2022-08-26T17:08:27.423Z,101592.41
2022-08-26T17:13:35.439Z,101595.88
2022-08-26T17:18:37.999Z,101602.84
2022-08-26T17:23:41.615Z,101611.56
2022-08-26T17:28:43.107Z,101618.53
2022-08-26T17:33:47.749Z,101615.03
2022-08-26T17:38:52.491Z,101619.41
2022-08-26T17:43:56.118Z,101613.31
2022-08-26T17:48:57.645Z,101615.06
2022-08-26T17:53:59.199Z,101614.19
2022-08-26T17:59:03.582Z,101620.28
2022-08-26T18:04:05.969Z,101625.50
2022-08-26T18:09:07.694Z,101629.00
2022-08-26T18:14:09.358Z,101626.38
2022-08-26T18:19:10.864Z,101632.44
2022-08-26T18:24:14.208Z,101630.69
2022-08-26T18:29:18.135Z,101635.94
2022-08-26T18:34:19.942Z,101642.91
2022-08-26T18:39:23.532Z,101649.88
2022-08-26T18:44:25.425Z,101651.59
2022-08-26T18:49:27.190Z,101662.88
2022-08-26T18:54:29.295Z,101658.50
2022-08-26T18:59:30.925Z,101663.75
2022-08-26T19:04:32.594Z,101661.06
2022-08-26T19:09:34.739Z,101666.28
2022-08-26T19:14:37.596Z,101677.59
2022-08-26T19:19:39.126Z,101678.41
2022-08-26T19:24:40.709Z,101686.22
2022-08-26T19:29:42.274Z,101677.56
2022-08-26T19:34:44.556Z,101684.44
2022-08-26T19:39:47.394Z,101692.25
2022-08-26T19:45:07.543Z,101686.16
2022-08-26T19:50:17.558Z,101699.19
2022-08-26T19:55:20.777Z,101701.78
2022-08-26T20:00:25.423Z,101700.06
2022-08-26T20:05:27.388Z,101700.00
2022-08-26T20:10:28.977Z,101692.16
2022-08-26T20:15:30.483Z,101691.28
2022-08-26T20:20:50.362Z,101690.44
2022-08-26T20:25:51.868Z,101686.00
2022-08-26T20:30:53.856Z,101692.09
2022-08-26T20:35:55.441Z,101689.41
2022-08-26T20:40:57.077Z,101696.44
2022-08-26T20:45:58.738Z,101698.94
2022-08-26T20:51:01.199Z,101698.06
2022-08-26T20:56:06.053Z,101700.66
2022-08-26T21:01:09.050Z,101707.50
2022-08-26T21:06:10.832Z,101713.63
2022-08-26T21:11:12.561Z,101709.28
2022-08-26T21:16:14.314Z,101707.50
2022-08-26T21:21:15.932Z,101711.88
2022-08-26T21:26:17.616Z,101708.41
2022-08-26T21:31:22.169Z,101696.06
2022-08-26T21:36:24.452Z,101697.78
2022-08-26T21:41:27.327Z,101695.13
2022-08-26T21:46:30.120Z,101693.41
2022-08-26T21:51:33.615Z,101704.72
2022-08-26T21:56:39.799Z,101708.94
2022-08-26T22:01:41.645Z,101708.94
2022-08-26T22:06:46.321Z,101708.09
2022-08-26T22:11:48.340Z,101702.03
2022-08-26T22:16:50.458Z,101711.50
2022-08-26T22:21:54.878Z,101718.38
2022-08-26T22:26:57.007Z,101714.97
2022-08-26T22:32:02.962Z,101709.69
2022-08-26T22:37:04.798Z,101717.56
2022-08-26T22:42:07.181Z,101720.13
2022-08-26T22:47:08.771Z,101717.50
2022-08-26T22:52:10.436Z,101712.25
2022-08-26T22:57:12.021Z,101709.59
2022-08-26T23:02:14.057Z,101714.75
2022-08-26T23:07:16.146Z,101700.88
2022-08-26T23:12:18.999Z,101703.47
2022-08-26T23:17:21.522Z,101714.72
2022-08-26T23:22:23.123Z,101704.28
2022-08-26T23:27:24.855Z,101706.81
2022-08-26T23:32:26.637Z,101704.28
2022-08-26T23:37:35.864Z,101703.38
2022-08-26T23:42:37.990Z,101693.75
2022-08-26T23:47:43.999Z,101694.59
2022-08-26T23:53:06.425Z,101699.81
2022-08-26T23:58:08.516Z,101705.00
